Time;durP1;ratioP1;P1;durP2;ratioP2;P2;SDS_P1;SDS_P2;PMS_P1;PMS_P2;Temp;Humidity;BMP_temperature;BMP_pressure;BME280_temperature;BME280_humidity;BME280_pressure;Samples;Min_cycle;Max_cycle;Signal;HPM_P1;HPM_P2
2021/07/04 00:00:35;;;;;;;40.47;27.95;;;;;;;;;;4377020;32;20170;-75
2021/07/04 00:03:01;;;;;;;37.92;26.62;;;;;;;;;;4394713;32;20203;-75
2021/07/04 00:05:28;;;;;;;36.42;25.35;;;;;;;;;;4396834;32;20143;-75
2021/07/04 00:07:54;;;;;;;40.33;28.33;;;;;;;;;;4392131;32;20127;-75
2021/07/04 00:10:34;;;;;;;40.40;28.10;;;;;;;;;;4391059;32;20574;-75
2021/07/04 00:16:22;;;;;;;57.75;33.78;;;;;;;;;;4406834;32;20165;-75
2021/07/04 00:18:47;;;;;;;48.67;32.15;;;;;;;;;;4403890;32;20572;-75
2021/07/04 00:21:13;;;;;;;67.00;38.00;;;;;;;;;;4397486;32;20172;-75
2021/07/04 00:23:41;;;;;;;59.50;35.97;;;;;;;;;;4391121;32;20492;-76
2021/07/04 00:26:17;;;;;;;;;;;;;;;;;;;;;
2021/07/04 00:28:43;;;;;;;46.65;32.22;;;;;;;;;;4368020;32;20219;-75
2021/07/04 00:53:43;;;;;;;76.05;43.45;;;;;;;;;;4271315;33;20171;-75
2021/07/04 01:01:43;;;;;;;89.13;46.72;;;;;;;;;;4256927;33;20208;-75
2021/07/04 01:04:37;;;;;;;81.45;45.40;;;;;;;;;;4243346;33;20177;-76
2021/07/04 01:07:09;;;;;;;77.55;44.13;;;;;;;;;;4262836;33;20201;-75
2021/07/04 01:09:40;;;;;;;69.47;41.30;;;;;;;;;;4270738;33;20526;-76
2021/07/04 01:12:09;;;;;;;77.30;45.12;;;;;;;;;;4305370;33;20179;-75
2021/07/04 01:14:37;;;;;;;56.05;36.75;;;;;;;;;;4314363;33;20171;-75
2021/07/04 01:17:03;;;;;;;56.35;35.85;;;;;;;;;;4344450;32;20202;-76
2021/07/04 01:19:28;;;;;;;54.80;36.50;;;;;;;;;;4391620;32;20134;-75
2021/07/04 01:21:55;;;;;;;54.78;36.30;;;;;;;;;;4404111;32;20162;-76
2021/07/04 01:27:12;;;;;;;50.60;34.10;;;;;;;;;;4385261;32;20188;-76
2021/07/04 01:29:38;;;;;;;71.15;43.78;;;;;;;;;;4390707;32;20516;-76
2021/07/04 01:32:13;;;;;;;69.22;39.50;;;;;;;;;;4391907;32;20201;-76
2021/07/04 01:34:38;;;;;;;88.53;49.05;;;;;;;;;;4404508;32;20592;-76
2021/07/04 01:37:04;;;;;;;63.85;38.97;;;;;;;;;;4393286;32;20154;-75
2021/07/04 01:39:29;;;;;;;59.33;37.13;;;;;;;;;;4377021;32;20134;-75
2021/07/04 01:41:55;;;;;;;70.53;39.10;;;;;;;;;;4390575;32;20202;-76
2021/07/04 01:44:31;;;;;;;72.28;40.47;;;;;;;;;;4399335;32;20168;-76
2021/07/04 01:46:56;;;;;;;79.75;44.50;;;;;;;;;;4393627;32;20203;-75
2021/07/04 01:50:03;;;;;;;93.15;45.95;;;;;;;;;;4390486;32;20548;-76
2021/07/04 01:52:53;;;;;;;63.15;38.80;;;;;;;;;;4387113;32;20222;-76
2021/07/04 02:08:18;;;;;;;68.68;39.38;;;;;;;;;;4283575;33;20214;-76
2021/07/04 02:10:55;;;;;;;82.45;45.15;;;;;;;;;;4312176;33;20191;-75
2021/07/04 02:13:21;;;;;;;72.10;42.00;;;;;;;;;;4383084;32;20173;-76
2021/07/04 02:16:18;;;;;;;69.85;41.05;;;;;;;;;;4405616;32;20187;-76
2021/07/04 02:18:48;;;;;;;67.43;41.08;;;;;;;;;;4389536;32;20182;-75
2021/07/04 02:21:14;;;;;;;102.95;50.80;;;;;;;;;;4390418;32;20154;-76
2021/07/04 02:23:42;;;;;;;87.00;45.95;;;;;;;;;;4390293;32;20162;-76
2021/07/04 02:26:07;;;;;;;87.80;46.47;;;;;;;;;;4389893;32;20164;-76
2021/07/04 02:28:35;;;;;;;70.95;41.37;;;;;;;;;;4391303;32;20134;-76
2021/07/04 02:31:03;;;;;;;91.47;49.42;;;;;;;;;;4391064;32;20204;-76
2021/07/04 02:34:47;;;;;;;89.15;47.45;;;;;;;;;;4390000;32;20161;-76
2021/07/04 02:43:57;;;;;;;;;;;;;;;;;;;;;
2021/07/04 02:49:10;;;;;;;88.97;45.85;;;;;;;;;;4405117;32;20150;-76
2021/07/04 02:51:36;;;;;;;66.55;39.97;;;;;;;;;;4379676;32;20146;-76
2021/07/04 02:54:01;;;;;;;70.53;39.88;;;;;;;;;;4390017;32;20162;-76
2021/07/04 02:56:28;;;;;;;97.25;48.58;;;;;;;;;;4390123;32;20143;-76
2021/07/04 02:58:53;;;;;;;71.57;40.42;;;;;;;;;;4396282;32;20186;-76
2021/07/04 03:01:18;;;;;;;81.20;44.67;;;;;;;;;;4406205;32;20600;-76
2021/07/04 03:03:44;;;;;;;87.50;45.45;;;;;;;;;;4407832;32;20604;-76
2021/07/04 03:06:19;;;;;;;;;;;;;;;;;;;;;
2021/07/04 03:08:54;;;;;;;91.75;44.63;;;;;;;;;;4407392;32;20150;-76
2021/07/04 03:11:19;;;;;;;98.03;47.20;;;;;;;;;;4407606;32;20126;-76
2021/07/04 03:13:44;;;;;;;97.30;46.37;;;;;;;;;;4407830;32;20578;-75
2021/07/04 03:16:10;;;;;;;82.72;40.20;;;;;;;;;;4406341;32;20184;-76
2021/07/04 03:18:35;;;;;;;79.75;41.60;;;;;;;;;;4407136;32;20503;-76
2021/07/04 03:21:04;;;;;;;92.97;45.38;;;;;;;;;;4393364;32;20629;-76
2021/07/04 03:23:38;;;;;;;95.43;43.25;;;;;;;;;;4392264;32;20189;-76
2021/07/04 03:26:24;;;;;;;106.00;49.95;;;;;;;;;;4384723;32;20180;-76
2021/07/04 03:28:57;;;;;;;79.40;37.35;;;;;;;;;;4392055;32;20174;-76
2021/07/04 03:31:34;;;;;;;93.80;44.00;;;;;;;;;;4393012;32;20215;-76
2021/07/04 03:34:21;;;;;;;94.68;42.80;;;;;;;;;;4392135;32;20150;-76
2021/07/04 03:37:18;;;;;;;91.05;42.08;;;;;;;;;;4391914;32;20178;-76
2021/07/04 03:46:22;;;;;;;;;;;;;;;;;;;;;
2021/07/04 03:51:47;;;;;;;121.32;51.20;;;;;;;;;;4345136;33;20258;-76
2021/07/04 03:54:23;;;;;;;;;;;;;;;;;;;;;
2021/07/04 03:56:58;;;;;;;107.55;46.65;;;;;;;;;;4344581;33;20159;-76
2021/07/04 03:59:48;;;;;;;;;;;;;;;;;;;;;
2021/07/04 04:02:14;;;;;;;94.62;44.28;;;;;;;;;;4347367;32;20494;-76
2021/07/04 04:04:40;;;;;;;93.95;42.78;;;;;;;;;;4407525;32;20160;-76
2021/07/04 04:07:05;;;;;;;97.12;42.92;;;;;;;;;;4406810;32;20463;-76
2021/07/04 04:09:48;;;;;;;;;;;;;;;;;;;;;
2021/07/04 04:12:23;;;;;;;107.65;47.03;;;;;;;;;;4406900;32;20162;-77
2021/07/04 04:17:43;;;;;;;112.78;49.05;;;;;;;;;;4391711;32;20286;-76
2021/07/04 04:23:30;;;;;;;106.53;47.58;;;;;;;;;;4344338;33;20183;-77
2021/07/04 04:25:55;;;;;;;90.75;43.08;;;;;;;;;;4391745;32;20150;-77
2021/07/04 04:28:20;;;;;;;123.65;52.28;;;;;;;;;;4391652;32;20188;-76
2021/07/04 04:30:46;;;;;;;105.00;47.47;;;;;;;;;;4390974;32;20190;-77
2021/07/04 04:33:11;;;;;;;116.22;49.38;;;;;;;;;;4394182;32;20150;-77
2021/07/04 04:35:36;;;;;;;96.65;42.58;;;;;;;;;;4392720;32;20165;-77
2021/07/04 04:38:05;;;;;;;69.60;35.80;;;;;;;;;;4406324;32;20539;-77
2021/07/04 04:40:33;;;;;;;88.20;42.83;;;;;;;;;;4406301;32;20168;-77
2021/07/04 04:42:59;;;;;;;82.03;38.55;;;;;;;;;;4399538;32;20146;-76
2021/07/04 04:45:36;;;;;;;81.50;39.33;;;;;;;;;;4390807;32;20138;-77
2021/07/04 04:48:02;;;;;;;71.78;36.55;;;;;;;;;;4385509;32;20158;-75
2021/07/04 04:50:27;;;;;;;69.28;36.42;;;;;;;;;;4391270;32;20196;-76
2021/07/04 04:52:55;;;;;;;68.35;35.63;;;;;;;;;;4390817;32;20307;-77
2021/07/04 04:55:20;;;;;;;76.55;39.25;;;;;;;;;;4391021;32;20150;-76
2021/07/04 04:57:46;;;;;;;84.40;42.03;;;;;;;;;;4390615;32;20134;-76
2021/07/04 05:00:12;;;;;;;73.07;38.78;;;;;;;;;;4404733;32;20180;-76
2021/07/04 05:02:48;;;;;;;;;;;;;;;;;;;;;
2021/07/04 05:05:16;;;;;;;71.80;37.15;;;;;;;;;;4381284;32;20683;-76
2021/07/04 05:07:41;;;;;;;68.75;36.33;;;;;;;;;;4390882;32;20135;-76
2021/07/04 05:10:07;;;;;;;67.20;37.47;;;;;;;;;;4390954;32;20581;-76
2021/07/04 05:12:32;;;;;;;63.55;33.20;;;;;;;;;;4399462;32;20196;-76
2021/07/04 05:20:56;;;;;;;71.30;37.17;;;;;;;;;;4390586;32;20555;-77
2021/07/04 05:23:23;;;;;;;59.58;33.13;;;;;;;;;;4389714;32;20208;-76
2021/07/04 05:25:49;;;;;;;61.90;33.17;;;;;;;;;;4390416;32;20131;-76
2021/07/04 05:31:52;;;;;;;56.53;29.58;;;;;;;;;;4390685;32;20196;-77
2021/07/04 05:34:42;;;;;;;62.15;31.48;;;;;;;;;;4328863;33;20215;-76
2021/07/04 05:40:29;;;;;;;56.67;30.80;;;;;;;;;;4314504;33;20143;-76
2021/07/04 05:42:57;;;;;;;54.13;31.45;;;;;;;;;;4321037;32;20178;-76
2021/07/04 05:45:24;;;;;;;54.42;30.83;;;;;;;;;;4404692;32;20210;-76
2021/07/04 05:47:50;;;;;;;59.30;35.35;;;;;;;;;;4391841;32;20216;-77
2021/07/04 05:50:15;;;;;;;53.47;32.17;;;;;;;;;;4405603;32;20142;-76
2021/07/04 05:52:41;;;;;;;57.70;34.88;;;;;;;;;;4405433;32;20528;-76
2021/07/04 05:55:06;;;;;;;43.47;27.70;;;;;;;;;;4404135;32;20135;-76
2021/07/04 05:57:32;;;;;;;44.42;27.48;;;;;;;;;;4405697;32;20205;-76
2021/07/04 05:59:57;;;;;;;41.60;26.65;;;;;;;;;;4405121;32;20126;-76
2021/07/04 06:02:22;;;;;;;45.60;29.17;;;;;;;;;;4401688;32;20184;-76
2021/07/04 06:04:48;;;;;;;41.92;28.25;;;;;;;;;;4389306;32;20472;-76
2021/07/04 06:07:13;;;;;;;40.45;26.50;;;;;;;;;;4388804;32;20669;-76
2021/07/04 06:09:38;;;;;;;43.05;27.45;;;;;;;;;;4397246;32;20134;-76
2021/07/04 06:12:04;;;;;;;40.75;24.45;;;;;;;;;;4391234;32;20138;-76
2021/07/04 06:14:29;;;;;;;40.25;26.00;;;;;;;;;;4391957;32;20483;-76
2021/07/04 06:16:55;;;;;;;39.17;25.50;;;;;;;;;;4404604;32;20133;-77
2021/07/04 06:19:20;;;;;;;34.97;22.87;;;;;;;;;;4389566;32;20560;-77
2021/07/04 06:21:56;;;;;;;;;;;;;;;;;;;;;
2021/07/04 06:24:21;;;;;;;36.95;25.42;;;;;;;;;;4380780;32;20204;-76
2021/07/04 06:26:47;;;;;;;37.42;25.27;;;;;;;;;;4390374;32;20154;-78
2021/07/04 06:29:12;;;;;;;38.97;25.30;;;;;;;;;;4389694;32;20178;-77
2021/07/04 06:34:51;;;;;;;38.45;25.52;;;;;;;;;;4375016;32;20484;-77
2021/07/04 06:40:23;;;;;;;28.38;19.55;;;;;;;;;;4378109;32;20161;-76
2021/07/04 06:42:48;;;;;;;32.85;22.70;;;;;;;;;;4392760;32;20131;-76
2021/07/04 06:45:16;;;;;;;30.17;20.70;;;;;;;;;;4392469;32;20488;-76
2021/07/04 06:48:30;;;;;;;37.05;23.48;;;;;;;;;;4392902;32;20505;-76
2021/07/04 06:50:39;;;;;;;35.28;24.60;;;;;;;;;;4381926;32;20158;-77
2021/07/04 06:53:14;;;;;;;31.75;21.12;;;;;;;;;;4380236;32;20150;-79
2021/07/04 06:56:19;;;;;;;27.05;19.25;;;;;;;;;;4379195;32;20131;-77
2021/07/04 06:58:58;;;;;;;20.15;14.68;;;;;;;;;;4392477;32;20231;-77
2021/07/04 07:01:36;;;;;;;19.23;14.07;;;;;;;;;;4376461;32;20197;-77
2021/07/04 07:04:01;;;;;;;20.65;15.02;;;;;;;;;;4392751;32;20165;-77
2021/07/04 07:06:26;;;;;;;21.95;14.80;;;;;;;;;;4391998;32;20469;-77
2021/07/04 07:08:52;;;;;;;16.75;12.05;;;;;;;;;;4361525;32;20158;-77
2021/07/04 07:11:17;;;;;;;16.23;12.23;;;;;;;;;;4376956;32;20244;-77
2021/07/04 07:13:43;;;;;;;14.57;11.25;;;;;;;;;;4377748;32;20175;-77
2021/07/04 07:16:08;;;;;;;14.68;10.73;;;;;;;;;;4364793;32;20224;-77
2021/07/04 07:19:08;;;;;;;7.55;6.57;;;;;;;;;;4402629;32;20278;-76
2021/07/04 07:21:33;;;;;;;7.78;6.10;;;;;;;;;;4404532;32;20190;-77
2021/07/04 07:23:58;;;;;;;8.55;6.55;;;;;;;;;;4392512;32;20568;-76
2021/07/04 07:26:26;;;;;;;9.20;6.07;;;;;;;;;;4392402;32;20157;-76
2021/07/04 07:28:52;;;;;;;7.15;5.65;;;;;;;;;;4386688;32;20150;-76
2021/07/04 07:31:20;;;;;;;8.73;6.40;;;;;;;;;;4393622;32;20648;-77
2021/07/04 07:40:30;;;;;;;10.80;6.93;;;;;;;;;;4330529;33;20179;-77
2021/07/04 07:43:21;;;;;;;;;;;;;;;;;;;;;
2021/07/04 07:45:47;;;;;;;8.13;6.28;;;;;;;;;;4333909;33;20180;-76
2021/07/04 07:48:58;;;;;;;7.07;5.75;;;;;;;;;;4314853;33;20474;-76
2021/07/04 07:54:35;;;;;;;6.12;5.18;;;;;;;;;;4305464;33;20190;-76
2021/07/04 08:03:35;;;;;;;7.62;5.00;;;;;;;;;;4395557;32;20157;-77
2021/07/04 08:12:27;;;;;;;4.35;3.85;;;;;;;;;;4329795;33;20187;-78
2021/07/04 08:14:55;;;;;;;4.87;4.32;;;;;;;;;;4397762;32;20179;-76
2021/07/04 08:22:52;;;;;;;5.07;4.35;;;;;;;;;;4381337;32;20197;-75
2021/07/04 08:25:18;;;;;;;4.75;4.22;;;;;;;;;;4391091;32;20146;-76
2021/07/04 08:28:36;;;;;;;6.50;4.60;;;;;;;;;;4391348;32;20173;-76
2021/07/04 08:31:12;;;;;;;6.53;4.00;;;;;;;;;;4388946;32;20216;-76
2021/07/04 08:36:50;;;;;;;4.47;3.90;;;;;;;;;;4338898;33;20162;-76
2021/07/04 08:39:16;;;;;;;3.85;3.35;;;;;;;;;;4391153;32;20189;-77
2021/07/04 08:41:44;;;;;;;5.87;4.40;;;;;;;;;;4390808;32;20611;-76
2021/07/04 08:45:10;;;;;;;6.47;4.87;;;;;;;;;;4390955;32;20236;-75
2021/07/04 08:47:12;;;;;;;4.55;3.90;;;;;;;;;;4383869;32;20170;-76
2021/07/04 08:49:37;;;;;;;5.70;4.18;;;;;;;;;;4392077;32;20166;-76
2021/07/04 08:52:21;;;;;;;4.55;3.78;;;;;;;;;;4405824;32;20556;-76
2021/07/04 08:58:18;;;;;;;3.08;2.45;;;;;;;;;;4394943;32;20665;-76
2021/07/04 09:01:09;;;;;;;3.53;2.25;;;;;;;;;;4390578;32;20182;-76
2021/07/04 09:03:37;;;;;;;2.10;1.90;;;;;;;;;;4390548;32;20193;-76
2021/07/04 09:06:24;;;;;;;1.30;1.20;;;;;;;;;;4390714;32;20139;-76
2021/07/04 09:09:06;;;;;;;2.87;1.90;;;;;;;;;;4356541;33;20146;-76
2021/07/04 09:11:31;;;;;;;3.45;1.83;;;;;;;;;;4374632;32;20463;-76
2021/07/04 09:14:44;;;;;;;3.83;2.12;;;;;;;;;;4392361;32;20177;-76
2021/07/04 09:20:41;;;;;;;2.78;2.58;;;;;;;;;;4302937;33;20186;-76
2021/07/04 09:29:39;;;;;;;2.83;2.10;;;;;;;;;;4314328;33;20588;-76
2021/07/04 09:32:13;;;;;;;2.33;2.12;;;;;;;;;;4320921;33;20632;-77
2021/07/04 09:34:58;;;;;;;3.20;2.70;;;;;;;;;;4328554;33;20283;-76
2021/07/04 09:38:00;;;;;;;3.42;2.50;;;;;;;;;;4363314;32;20343;-76
2021/07/04 09:40:29;;;;;;;3.70;2.95;;;;;;;;;;4375236;32;20146;-74
2021/07/04 09:43:20;;;;;;;3.60;2.53;;;;;;;;;;4375665;32;20627;-76
2021/07/04 09:48:50;;;;;;;3.72;2.70;;;;;;;;;;4390508;32;20180;-77
2021/07/04 09:51:20;;;;;;;2.85;2.50;;;;;;;;;;4388545;32;20547;-76
2021/07/04 09:54:04;;;;;;;2.85;2.30;;;;;;;;;;4387185;32;20142;-77
2021/07/04 10:00:07;;;;;;;;;;;;;;;;;;;;;
2021/07/04 10:02:51;;;;;;;4.50;2.30;;;;;;;;;;4328438;33;20543;-76
2021/07/04 10:05:16;;;;;;;2.20;1.92;;;;;;;;;;4389319;32;20169;-76
2021/07/04 10:07:42;;;;;;;2.55;2.30;;;;;;;;;;4386601;32;20198;-75
2021/07/04 10:10:16;;;;;;;6.00;2.33;;;;;;;;;;4391793;32;20135;-75
2021/07/04 10:12:44;;;;;;;2.53;2.33;;;;;;;;;;4389061;32;20591;-77
2021/07/04 10:15:12;;;;;;;3.83;2.53;;;;;;;;;;4378243;32;20595;-76
2021/07/04 10:17:38;;;;;;;2.67;2.15;;;;;;;;;;4392853;32;20203;-76
2021/07/04 10:20:04;;;;;;;3.67;2.60;;;;;;;;;;4384123;32;20166;-76
2021/07/04 10:22:35;;;;;;;3.37;2.62;;;;;;;;;;4408114;32;20162;-76
2021/07/04 10:25:06;;;;;;;3.60;2.67;;;;;;;;;;4407668;32;20156;-77
2021/07/04 10:27:34;;;;;;;5.20;2.67;;;;;;;;;;4393237;32;20138;-76
2021/07/04 10:30:10;;;;;;;2.40;2.20;;;;;;;;;;4392571;32;20560;-76
2021/07/04 10:32:35;;;;;;;2.30;2.03;;;;;;;;;;4391723;32;20476;-76
2021/07/04 10:35:05;;;;;;;2.65;2.45;;;;;;;;;;4393902;32;20214;-76
2021/07/04 10:37:36;;;;;;;2.50;2.28;;;;;;;;;;4406345;32;20160;-76
2021/07/04 10:40:10;;;;;;;2.55;2.10;;;;;;;;;;4402687;32;20635;-76
2021/07/04 10:42:37;;;;;;;3.58;1.98;;;;;;;;;;4391307;32;20146;-77
2021/07/04 10:45:03;;;;;;;7.03;2.53;;;;;;;;;;4392768;32;20143;-79
2021/07/04 10:47:35;;;;;;;3.50;2.15;;;;;;;;;;4398925;32;20146;-76
2021/07/04 10:50:14;;;;;;;2.72;2.20;;;;;;;;;;4406718;32;20165;-73
2021/07/04 10:52:40;;;;;;;4.15;2.15;;;;;;;;;;4407108;32;20189;-72
2021/07/04 10:55:15;;;;;;;3.05;1.92;;;;;;;;;;4407094;32;20213;-79
2021/07/04 10:57:49;;;;;;;1.80;1.70;;;;;;;;;;4392474;32;20177;-76
2021/07/04 11:00:33;;;;;;;2.12;1.87;;;;;;;;;;4392500;32;20211;-75
2021/07/04 11:02:59;;;;;;;2.25;1.92;;;;;;;;;;4400154;32;20228;-76
2021/07/04 11:05:31;;;;;;;2.35;2.05;;;;;;;;;;4398404;32;20179;-77
2021/07/04 11:07:56;;;;;;;4.37;2.10;;;;;;;;;;4392304;32;20173;-75
2021/07/04 11:10:24;;;;;;;2.43;1.77;;;;;;;;;;4393593;32;20131;-77
2021/07/04 11:12:53;;;;;;;3.65;2.28;;;;;;;;;;4395597;32;20316;-77
2021/07/04 11:15:19;;;;;;;2.95;1.98;;;;;;;;;;4391737;32;20145;-77
2021/07/04 11:18:13;;;;;;;1.73;1.60;;;;;;;;;;4392232;32;20169;-76
2021/07/04 11:20:38;;;;;;;3.08;1.83;;;;;;;;;;4380282;32;20193;-77
2021/07/04 11:23:07;;;;;;;1.83;1.67;;;;;;;;;;4390970;32;20241;-76
2021/07/04 11:25:39;;;;;;;2.35;1.80;;;;;;;;;;4406359;32;20150;-76
2021/07/04 11:28:19;;;;;;;2.30;2.10;;;;;;;;;;4390616;32;20263;-77
2021/07/04 11:30:54;;;;;;;3.30;1.80;;;;;;;;;;4397590;32;20519;-76
2021/07/04 11:33:39;;;;;;;3.50;2.10;;;;;;;;;;4391731;32;20177;-78
2021/07/04 11:36:04;;;;;;;4.70;1.85;;;;;;;;;;4392039;32;20813;-76
2021/07/04 11:38:40;;;;;;;2.37;2.00;;;;;;;;;;4392012;32;20241;-75
2021/07/04 11:41:06;;;;;;;2.20;2.00;;;;;;;;;;4391773;32;20764;-77
2021/07/04 11:43:58;;;;;;;2.62;1.60;;;;;;;;;;4391898;32;20151;-76
2021/07/04 11:46:24;;;;;;;2.25;2.05;;;;;;;;;;4397577;32;20193;-77
2021/07/04 11:49:02;;;;;;;2.28;1.83;;;;;;;;;;4400944;32;20212;-77
2021/07/04 11:51:52;;;;;;;3.10;2.45;;;;;;;;;;4393021;32;20189;-75
2021/07/04 11:54:17;;;;;;;2.80;2.60;;;;;;;;;;4396120;32;20158;-76
2021/07/04 11:56:44;;;;;;;3.50;2.20;;;;;;;;;;4392537;32;20170;-78
2021/07/04 11:59:11;;;;;;;3.17;1.90;;;;;;;;;;4391742;32;20139;-76
2021/07/04 12:01:50;;;;;;;4.43;2.10;;;;;;;;;;4393974;32;20150;-75
2021/07/04 12:04:16;;;;;;;2.35;2.15;;;;;;;;;;4390362;32;20134;-76
2021/07/04 12:06:52;;;;;;;2.60;1.80;;;;;;;;;;4404704;32;20154;-76
2021/07/04 12:09:17;;;;;;;3.47;2.50;;;;;;;;;;4405306;32;20146;-77
2021/07/04 12:11:57;;;;;;;;;;;;;;;;;;;;;
2021/07/04 12:14:29;;;;;;;3.33;2.28;;;;;;;;;;4402522;32;20184;-76
2021/07/04 12:16:55;;;;;;;3.45;2.33;;;;;;;;;;4400541;32;20194;-76
2021/07/04 12:19:32;;;;;;;2.60;2.20;;;;;;;;;;4391949;32;20158;-76
2021/07/04 12:21:58;;;;;;;3.35;2.80;;;;;;;;;;4393460;32;20165;-76
2021/07/04 12:24:50;;;;;;;4.90;3.15;;;;;;;;;;4391237;32;20204;-78
2021/07/04 12:27:16;;;;;;;2.90;2.08;;;;;;;;;;4389343;32;20158;-76
2021/07/04 12:30:13;;;;;;;2.50;2.17;;;;;;;;;;4392366;32;20192;-75
2021/07/04 12:32:47;;;;;;;2.65;2.40;;;;;;;;;;4365494;32;20223;-77
2021/07/04 12:35:21;;;;;;;3.70;3.00;;;;;;;;;;4391343;32;20233;-75
2021/07/04 12:37:47;;;;;;;6.43;3.92;;;;;;;;;;4390717;32;20122;-76
2021/07/04 12:40:15;;;;;;;6.05;4.40;;;;;;;;;;4395010;32;20601;-75
2021/07/04 12:42:41;;;;;;;8.05;4.43;;;;;;;;;;4404892;32;20150;-76
2021/07/04 12:45:20;;;;;;;4.70;4.20;;;;;;;;;;4406133;32;20173;-76
2021/07/04 12:47:56;;;;;;;4.75;4.00;;;;;;;;;;4405678;32;20141;-76
2021/07/04 12:50:22;;;;;;;5.45;3.67;;;;;;;;;;4406182;32;20195;-76
2021/07/04 12:52:54;;;;;;;4.78;3.65;;;;;;;;;;4396183;32;20143;-76
2021/07/04 12:55:38;;;;;;;7.07;4.30;;;;;;;;;;4391339;32;20131;-76
2021/07/04 12:58:20;;;;;;;7.80;5.00;;;;;;;;;;4390550;32;20231;-76
2021/07/04 13:01:05;;;;;;;8.85;5.37;;;;;;;;;;4391785;32;20143;-76
2021/07/04 13:03:41;;;;;;;6.35;4.80;;;;;;;;;;4389710;32;20170;-76
2021/07/04 13:06:07;;;;;;;6.85;5.05;;;;;;;;;;4391477;32;20134;-76
2021/07/04 13:08:32;;;;;;;5.00;4.22;;;;;;;;;;4391031;32;20492;-77
2021/07/04 13:11:26;;;;;;;7.32;3.97;;;;;;;;;;4390886;32;20131;-77
2021/07/04 13:14:01;;;;;;;3.97;3.00;;;;;;;;;;4390789;32;20130;-77
2021/07/04 13:16:27;;;;;;;3.70;2.62;;;;;;;;;;4393060;32;20164;-74
2021/07/04 13:18:52;;;;;;;4.00;2.60;;;;;;;;;;4398249;32;20130;-76
2021/07/04 13:21:31;;;;;;;6.35;3.12;;;;;;;;;;4402253;32;20682;-77
2021/07/04 13:24:12;;;;;;;4.40;3.47;;;;;;;;;;4390224;32;20139;-75
2021/07/04 13:42:03;;;;;;;6.87;5.00;;;;;;;;;;4295045;33;20183;-75
2021/07/04 13:47:25;;;;;;;10.80;5.40;;;;;;;;;;4279785;33;20176;-75
2021/07/04 13:49:50;;;;;;;7.97;5.22;;;;;;;;;;4303712;33;20276;-75
2021/07/04 13:52:18;;;;;;;8.68;5.85;;;;;;;;;;4346793;32;20146;-75
2021/07/04 13:54:44;;;;;;;9.98;7.15;;;;;;;;;;4375711;32;20220;-75
2021/07/04 13:57:29;;;;;;;;;;;;;;;;;;;;;
2021/07/04 14:09:21;;;;;;;13.27;7.55;;;;;;;;;;4283759;33;20538;-74
2021/07/04 14:11:47;;;;;;;13.75;9.55;;;;;;;;;;4308614;33;20171;-75
2021/07/04 14:29:14;;;;;;;;;;;;;;;;;;;;;
2021/07/04 14:53:11;;;;;;;9.90;7.35;;;;;;;;;;4312938;33;20522;-74
2021/07/04 14:56:05;;;;;;;;;;;;;;;;;;;;;
2021/07/04 15:11:22;;;;;;;;;;;;;;;;;;;;;
2021/07/04 15:14:03;;;;;;;;;;;;;;;;;;;;;
2021/07/04 15:16:59;;;;;;;9.20;5.87;;;;;;;;;;4263563;33;20156;-77
2021/07/04 15:25:50;;;;;;;7.78;5.80;;;;;;;;;;4348919;33;20606;-77
2021/07/04 15:28:46;;;;;;;;;;;;;;;;;;;;;
2021/07/04 15:34:35;;;;;;;11.82;5.35;;;;;;;;;;4318766;33;20253;-78
2021/07/04 15:37:00;;;;;;;6.72;4.65;;;;;;;;;;4330956;33;20193;-78
2021/07/04 15:44:55;;;;;;;9.60;5.68;;;;;;;;;;4391768;32;20192;-78
2021/07/04 15:50:34;;;;;;;;;;;;;;;;;;;;;
2021/07/04 15:53:11;;;;;;;8.70;5.45;;;;;;;;;;4392554;32;20185;-77
2021/07/04 15:58:46;;;;;;;;;;;;;;;;;;;;;
2021/07/04 16:01:42;;;;;;;;;;;;;;;;;;;;;
2021/07/04 16:04:55;;;;;;;7.60;5.18;;;;;;;;;;4366767;32;20257;-84
2021/07/04 16:07:26;;;;;;;7.15;5.65;;;;;;;;;;4372776;32;20197;-76
2021/07/04 16:09:53;;;;;;;6.45;4.87;;;;;;;;;;4376429;32;20147;-75
2021/07/04 16:12:29;;;;;;;12.75;6.97;;;;;;;;;;4376316;32;20197;-76
2021/07/04 16:15:08;;;;;;;9.45;6.25;;;;;;;;;;4376839;32;20186;-76
2021/07/04 16:20:42;;;;;;;6.87;4.78;;;;;;;;;;4380033;32;20664;-75
2021/07/04 16:26:11;;;;;;;5.20;3.87;;;;;;;;;;4359101;32;20152;-76
2021/07/04 16:28:36;;;;;;;6.45;3.90;;;;;;;;;;4387905;32;20185;-76
2021/07/04 16:31:04;;;;;;;5.43;3.75;;;;;;;;;;4390734;32;20196;-75
2021/07/04 16:34:09;;;;;;;8.35;4.53;;;;;;;;;;4390938;32;20146;-75
2021/07/04 16:36:30;;;;;;;6.05;3.72;;;;;;;;;;4387849;32;20174;-75
2021/07/04 16:38:56;;;;;;;5.82;3.45;;;;;;;;;;4391434;32;20154;-74
2021/07/04 16:41:32;;;;;;;5.62;3.95;;;;;;;;;;4391226;32;20154;-75
2021/07/04 16:44:09;;;;;;;;;;;;;;;;;;;;;
2021/07/04 16:46:45;;;;;;;5.70;3.78;;;;;;;;;;4354381;32;20154;-76
2021/07/04 16:51:56;;;;;;;4.85;3.80;;;;;;;;;;4389406;32;20561;-75
2021/07/04 16:57:26;;;;;;;5.10;3.95;;;;;;;;;;4338518;33;20246;-76
2021/07/04 16:59:54;;;;;;;7.10;3.40;;;;;;;;;;4388856;32;20591;-76
2021/07/04 17:02:19;;;;;;;6.18;3.40;;;;;;;;;;4390976;32;20196;-76
2021/07/04 17:04:50;;;;;;;7.97;4.60;;;;;;;;;;4391508;32;20496;-76
2021/07/04 17:07:18;;;;;;;5.22;3.70;;;;;;;;;;4390404;32;20170;-76
2021/07/04 17:09:44;;;;;;;6.37;3.85;;;;;;;;;;4377040;32;20225;-77
2021/07/04 17:12:12;;;;;;;6.70;3.42;;;;;;;;;;4391151;32;20162;-77
2021/07/04 17:17:26;;;;;;;6.45;3.58;;;;;;;;;;4373843;32;20173;-76
2021/07/04 17:20:08;;;;;;;4.28;3.15;;;;;;;;;;4390217;32;20147;-77
2021/07/04 17:22:54;;;;;;;6.75;3.87;;;;;;;;;;4385269;32;20563;-77
2021/07/04 17:25:41;;;;;;;5.93;3.60;;;;;;;;;;4379136;32;20177;-76
2021/07/04 17:31:16;;;;;;;6.62;3.92;;;;;;;;;;4370187;32;20526;-77
2021/07/04 17:34:09;;;;;;;7.25;4.10;;;;;;;;;;4385959;32;20169;-78
2021/07/04 17:49:33;;;;;;;7.50;3.83;;;;;;;;;;4390644;32;20483;-77
2021/07/04 17:52:08;;;;;;;;;;;;;;;;;;;;;
2021/07/04 17:54:37;;;;;;;6.93;3.58;;;;;;;;;;4384557;32;20236;-78
2021/07/04 18:00:25;;;;;;;6.45;3.62;;;;;;;;;;4343439;33;20157;-77
2021/07/04 18:03:12;;;;;;;5.45;3.60;;;;;;;;;;4343319;33;20173;-78
2021/07/04 18:05:41;;;;;;;12.30;4.85;;;;;;;;;;4343499;33;20144;-77
2021/07/04 18:08:27;;;;;;;;;;;;;;;;;;;;;
2021/07/04 18:11:55;;;;;;;;;;;;;;;;;;;;;
2021/07/04 18:14:30;;;;;;;8.00;4.80;;;;;;;;;;4337059;33;20175;-77
2021/07/04 18:17:08;;;;;;;6.75;3.60;;;;;;;;;;4356541;32;20166;-77
2021/07/04 18:43:24;;;;;;;5.62;3.25;;;;;;;;;;4273658;33;20741;-78
2021/07/04 18:46:12;;;;;;;5.55;2.97;;;;;;;;;;4288348;33;20650;-78
2021/07/04 18:55:35;;;;;;;;;;;;;;;;;;;;;
2021/07/04 18:58:29;;;;;;;;;;;;;;;;;;;;;
2021/07/04 19:10:47;;;;;;;4.50;3.10;;;;;;;;;;4261161;33;20681;-77
2021/07/04 19:13:16;;;;;;;4.47;3.78;;;;;;;;;;4277972;33;20186;-77
2021/07/04 19:16:10;;;;;;;7.72;3.67;;;;;;;;;;4287218;33;20618;-77
2021/07/04 19:22:14;;;;;;;;;;;;;;;;;;;;;
2021/07/04 19:39:50;;;;;;;6.68;3.78;;;;;;;;;;4337643;32;20190;-78
2021/07/04 19:42:43;;;;;;;7.93;4.60;;;;;;;;;;4388834;32;20274;-78
2021/07/04 19:48:40;;;;;;;;;;;;;;;;;;;;;
2021/07/04 19:57:58;;;;;;;;;;;;;;;;;;;;;
2021/07/04 20:10:16;;;;;;;10.98;5.78;;;;;;;;;;4286234;33;20216;-77
2021/07/04 20:13:04;;;;;;;11.18;5.60;;;;;;;;;;4287085;33;20171;-77
2021/07/04 20:19:07;;;;;;;11.55;6.50;;;;;;;;;;4330096;33;20210;-77
2021/07/04 20:21:51;;;;;;;13.57;6.60;;;;;;;;;;4330139;33;20156;-77
2021/07/04 20:28:18;;;;;;;;;;;;;;;;;;;;;
2021/07/04 20:36:27;;;;;;;9.15;6.12;;;;;;;;;;4344965;33;20200;-78
2021/07/04 20:58:08;;;;;;;11.93;7.62;;;;;;;;;;4198885;34;20245;-78
2021/07/04 21:07:53;;;;;;;;;;;;;;;;;;;;;
2021/07/04 21:26:03;;;;;;;18.55;9.95;;;;;;;;;;4243138;33;20530;-78
2021/07/04 21:41:50;;;;;;;18.60;11.43;;;;;;;;;;4229143;34;20165;-78
2021/07/04 21:43:55;;;;;;;22.62;12.43;;;;;;;;;;4218640;34;20267;-78
2021/07/04 21:46:21;;;;;;;18.85;10.38;;;;;;;;;;4230814;33;20221;-78
2021/07/04 21:49:08;;;;;;;16.33;10.80;;;;;;;;;;4299882;33;20164;-78
2021/07/04 21:51:54;;;;;;;17.23;10.35;;;;;;;;;;4299343;33;20160;-78
2021/07/04 21:54:44;;;;;;;19.92;11.05;;;;;;;;;;4299501;33;20255;-78
2021/07/04 21:57:48;;;;;;;17.80;10.77;;;;;;;;;;4296191;33;20149;-78
2021/07/04 22:06:39;;;;;;;21.75;11.50;;;;;;;;;;4301406;33;20179;-78
2021/07/04 22:12:31;;;;;;;21.50;11.93;;;;;;;;;;4288205;33;20290;-79
2021/07/04 22:15:20;;;;;;;28.45;13.43;;;;;;;;;;4318148;33;20189;-79
2021/07/04 22:18:29;;;;;;;;;;;;;;;;;;;;;
2021/07/04 22:21:29;;;;;;;24.30;12.25;;;;;;;;;;4302107;33;20608;-79
2021/07/04 22:33:52;;;;;;;24.17;11.93;;;;;;;;;;4306868;33;20259;-79
2021/07/04 22:36:34;;;;;;;;;;;;;;;;;;;;;
2021/07/04 22:39:08;;;;;;;22.30;12.07;;;;;;;;;;4316556;33;20224;-79
2021/07/04 22:48:20;;;;;;;17.50;9.57;;;;;;;;;;4235766;33;20204;-79
2021/07/04 23:00:53;;;;;;;;;;;;;;;;;;;;;
2021/07/04 23:18:45;;;;;;;26.20;12.27;;;;;;;;;;4255822;33;20372;-78
2021/07/04 23:21:37;;;;;;;22.83;12.20;;;;;;;;;;4258690;33;20223;-78
2021/07/04 23:24:08;;;;;;;24.17;12.63;;;;;;;;;;4257446;33;20169;-78
2021/07/04 23:27:00;;;;;;;;;;;;;;;;;;;;;
2021/07/04 23:30:18;;;;;;;21.77;12.63;;;;;;;;;;4322415;33;20152;-78
2021/07/04 23:33:03;;;;;;;20.37;13.88;;;;;;;;;;4344921;33;20205;-79
2021/07/04 23:35:28;;;;;;;21.17;12.25;;;;;;;;;;4345469;33;20178;-79
2021/07/04 23:38:09;;;;;;;21.52;13.43;;;;;;;;;;4344951;33;20155;-78